createdAt,value
2023-02-11T00:01:09.225Z,86.60
2023-02-11T00:03:38.756Z,86.90
2023-02-11T00:06:10.260Z,86.90
2023-02-11T00:08:38.948Z,86.60
2023-02-11T00:11:07.636Z,86.80
2023-02-11T00:13:35.688Z,87.00
2023-02-11T00:16:08.337Z,87.00
2023-02-11T00:18:37.261Z,86.80
2023-02-11T00:21:09.709Z,86.80
2023-02-11T00:23:37.836Z,86.70
2023-02-11T00:26:12.320Z,86.40
2023-02-11T00:28:41.398Z,86.30
2023-02-11T00:31:12.058Z,86.00
2023-02-11T00:33:40.429Z,86.30
2023-02-11T00:36:13.698Z,86.60
2023-02-11T00:38:43.578Z,86.50
2023-02-11T00:41:13.098Z,86.60
2023-02-11T00:43:41.757Z,86.80
2023-02-11T00:46:10.492Z,86.80
2023-02-11T00:48:38.714Z,87.00
2023-02-11T00:51:07.358Z,87.00
2023-02-11T00:53:37.167Z,86.60
2023-02-11T00:56:05.848Z,86.60
2023-02-11T00:58:34.816Z,86.60
2023-02-11T01:01:02.897Z,87.00
2023-02-11T01:03:31.454Z,86.80
2023-02-11T01:05:59.483Z,86.90
2023-02-11T01:08:27.884Z,86.80
2023-02-11T01:10:58.899Z,87.10
2023-02-11T01:13:28.632Z,86.90
2023-02-11T01:15:57.371Z,86.60
2023-02-11T01:18:26.155Z,86.50
2023-02-11T01:20:54.486Z,86.50
2023-02-11T01:23:24.892Z,86.30
2023-02-11T01:25:53.492Z,86.30
2023-02-11T01:28:25.354Z,86.40
2023-02-11T01:30:54.247Z,86.30
2023-02-11T01:33:23.414Z,86.70
2023-02-11T01:35:52.122Z,86.60
2023-02-11T01:38:23.007Z,86.40
2023-02-11T01:40:52.994Z,86.50
2023-02-11T01:43:23.368Z,87.00
2023-02-11T01:46:13.708Z,87.10
2023-02-11T01:48:45.194Z,87.50
2023-02-11T01:51:16.504Z,87.50
2023-02-11T01:54:03.429Z,87.90
2023-02-11T01:56:50.632Z,88.10
2023-02-11T01:59:24.039Z,88.00
2023-02-11T02:01:58.094Z,87.90
2023-02-11T02:04:32.477Z,88.10
2023-02-11T02:07:04.621Z,88.10
2023-02-11T02:09:39.335Z,88.10
2023-02-11T02:12:07.652Z,88.00
2023-02-11T02:14:40.525Z,88.10
2023-02-11T02:17:11.524Z,88.40
2023-02-11T02:20:09.095Z,88.60
2023-02-11T02:23:19.145Z,88.80
2023-02-11T02:26:19.808Z,88.80
2023-02-11T02:29:09.697Z,88.90
2023-02-11T02:31:55.765Z,88.90
2023-02-11T02:34:28.215Z,88.80
2023-02-11T02:37:05.422Z,89.10
2023-02-11T02:39:37.049Z,88.80
2023-02-11T02:42:06.089Z,88.80
2023-02-11T02:44:35.512Z,88.80
2023-02-11T02:47:03.575Z,88.70
2023-02-11T02:49:32.997Z,89.10
2023-02-11T02:52:16.504Z,89.10
2023-02-11T02:55:13.189Z,89.20
2023-02-11T02:57:58.426Z,89.10
2023-02-11T03:00:35.072Z,89.20
2023-02-11T03:03:16.815Z,89.40
2023-02-11T03:05:53.449Z,89.60
2023-02-11T03:08:29.160Z,89.60
2023-02-11T03:10:57.597Z,89.90
2023-02-11T03:13:31.948Z,90.00
2023-02-11T03:16:03.032Z,89.50
2023-02-11T03:18:34.765Z,89.40
2023-02-11T03:21:06.267Z,89.30
2023-02-11T03:23:38.528Z,89.40
2023-02-11T03:26:13.545Z,89.90
2023-02-11T03:28:47.006Z,90.20
2023-02-11T03:31:21.390Z,90.20
2023-02-11T03:33:56.748Z,90.40
2023-02-11T03:36:34.297Z,90.80
2023-02-11T03:39:04.652Z,90.90
2023-02-11T03:41:35.338Z,91.00
2023-02-11T03:44:04.547Z,91.00
2023-02-11T03:46:35.384Z,90.90
2023-02-11T03:49:07.890Z,90.50
2023-02-11T03:51:39.110Z,91.20
2023-02-11T03:54:11.262Z,91.90
2023-02-11T03:56:45.928Z,92.00
2023-02-11T03:59:14.086Z,92.50
2023-02-11T04:01:42.239Z,92.80
2023-02-11T04:04:10.341Z,92.50
2023-02-11T04:06:39.754Z,93.00
2023-02-11T04:09:08.848Z,92.60
2023-02-11T04:11:36.932Z,92.80
2023-02-11T04:14:05.162Z,93.10
2023-02-11T04:16:33.306Z,92.70
2023-02-11T04:19:01.655Z,92.90
2023-02-11T04:21:29.720Z,93.60
2023-02-11T04:23:59.203Z,93.70
2023-02-11T04:26:27.188Z,93.90
2023-02-11T04:28:55.257Z,93.90
2023-02-11T04:31:23.469Z,94.00
2023-02-11T04:33:51.590Z,93.80
2023-02-11T04:36:19.564Z,93.70
2023-02-11T04:38:47.681Z,93.60
2023-02-11T04:41:17.121Z,93.80
2023-02-11T04:43:45.103Z,94.70
2023-02-11T04:46:13.259Z,94.90
2023-02-11T04:48:41.355Z,95.20
2023-02-11T04:51:09.414Z,95.10
2023-02-11T04:53:37.540Z,95.10
2023-02-11T04:56:06.074Z,94.60
2023-02-11T04:58:35.632Z,94.80
2023-02-11T05:01:07.977Z,94.50
2023-02-11T05:03:36.222Z,94.60
2023-02-11T05:06:04.522Z,95.20
2023-02-11T05:08:32.953Z,95.30
2023-02-11T05:11:02.261Z,95.40
2023-02-11T05:13:30.783Z,95.70
2023-02-11T05:16:00.313Z,95.40
2023-02-11T05:18:28.493Z,95.30
2023-02-11T05:20:56.569Z,95.00
2023-02-11T05:23:24.912Z,94.70
2023-02-11T05:25:53.046Z,95.10
2023-02-11T05:28:21.323Z,94.80
2023-02-11T05:30:49.521Z,95.00
2023-02-11T05:33:19.206Z,95.30
2023-02-11T05:35:47.258Z,95.10
2023-02-11T05:38:15.398Z,95.30
2023-02-11T05:40:44.024Z,95.00
2023-02-11T05:43:12.117Z,95.30
2023-02-11T05:45:40.193Z,95.40
2023-02-11T05:48:08.203Z,95.50
2023-02-11T05:50:37.688Z,95.40
2023-02-11T05:53:06.787Z,95.00
2023-02-11T05:55:35.393Z,95.70
2023-02-11T05:58:03.407Z,95.80
2023-02-11T06:00:31.506Z,96.50
2023-02-11T06:02:59.556Z,96.50
2023-02-11T06:05:28.158Z,96.40
2023-02-11T06:07:57.578Z,96.60
2023-02-11T06:10:25.792Z,96.30
2023-02-11T06:12:53.866Z,96.00
2023-02-11T06:15:21.999Z,96.60
2023-02-11T06:17:50.103Z,96.50
2023-02-11T06:20:18.305Z,96.50
2023-02-11T06:22:46.467Z,96.10
2023-02-11T06:25:16.000Z,96.40
2023-02-11T06:27:44.108Z,96.60
2023-02-11T06:30:13.177Z,96.80
2023-02-11T06:32:44.819Z,96.80
2023-02-11T06:35:13.255Z,96.80
2023-02-11T06:37:41.519Z,97.20
2023-02-11T06:40:10.053Z,97.80
2023-02-11T06:42:39.817Z,97.70
2023-02-11T06:45:09.511Z,97.10
2023-02-11T06:47:37.715Z,97.60
2023-02-11T06:50:07.605Z,97.50
2023-02-11T06:52:35.792Z,97.20
2023-02-11T06:55:03.858Z,97.30
2023-02-11T06:57:32.496Z,96.90
2023-02-11T07:00:01.794Z,97.10
2023-02-11T07:02:29.839Z,97.00
2023-02-11T07:04:57.845Z,96.60
2023-02-11T07:07:25.956Z,96.60
2023-02-11T07:09:54.005Z,96.60
2023-02-11T07:12:22.083Z,96.50
2023-02-11T07:14:50.161Z,96.80
2023-02-11T07:17:19.462Z,96.70
2023-02-11T07:19:47.542Z,96.70
2023-02-11T07:22:15.661Z,96.70
2023-02-11T07:24:43.809Z,96.40
2023-02-11T07:27:12.090Z,96.70
2023-02-11T07:29:40.175Z,96.90
2023-02-11T07:32:08.512Z,96.90
2023-02-11T07:34:38.649Z,97.20
2023-02-11T07:37:07.017Z,96.90
2023-02-11T07:39:35.515Z,97.00
2023-02-11T07:42:04.247Z,97.30
2023-02-11T07:44:35.237Z,97.20
2023-02-11T07:47:03.332Z,97.00
2023-02-11T07:49:31.498Z,96.90
2023-02-11T07:52:00.966Z,96.90
2023-02-11T07:54:29.019Z,97.10
2023-02-11T07:56:57.189Z,97.10
2023-02-11T07:59:25.738Z,97.40
2023-02-11T08:01:54.235Z,97.30
2023-02-11T08:04:22.356Z,97.50
2023-02-11T08:06:52.730Z,97.60
2023-02-11T08:09:22.187Z,97.40
2023-02-11T08:11:50.637Z,97.30
2023-02-11T08:14:18.733Z,97.50
2023-02-11T08:16:47.051Z,97.30
2023-02-11T08:19:17.666Z,97.20
2023-02-11T08:21:46.105Z,97.00
2023-02-11T08:24:14.137Z,97.20
2023-02-11T08:26:43.930Z,97.40
2023-02-11T08:29:14.044Z,97.00
2023-02-11T08:31:44.682Z,97.40
2023-02-11T08:34:14.299Z,97.20
2023-02-11T08:36:44.724Z,97.20
2023-02-11T08:39:19.540Z,97.10
2023-02-11T08:41:50.352Z,97.60
2023-02-11T08:44:19.736Z,97.20
2023-02-11T08:46:48.723Z,97.30
2023-02-11T08:49:17.130Z,96.90
2023-02-11T08:51:45.553Z,96.50
2023-02-11T08:54:14.263Z,96.60
2023-02-11T08:56:42.618Z,96.80
2023-02-11T08:59:14.093Z,96.70
2023-02-11T09:01:44.091Z,96.50
2023-02-11T09:04:12.367Z,96.70
2023-02-11T09:06:40.684Z,96.80
2023-02-11T09:09:13.477Z,96.50
2023-02-11T09:11:43.088Z,96.50
2023-02-11T09:14:17.791Z,96.30
2023-02-11T09:16:45.996Z,95.80
2023-02-11T09:19:14.126Z,96.50
2023-02-11T09:21:42.318Z,96.60
2023-02-11T09:24:10.886Z,96.80
2023-02-11T09:26:39.475Z,97.10
2023-02-11T09:29:07.603Z,96.90
2023-02-11T09:31:37.106Z,97.20
2023-02-11T09:34:06.974Z,97.20
2023-02-11T09:36:38.278Z,97.00
2023-02-11T09:39:08.213Z,96.80
2023-02-11T09:42:10.871Z,96.60
2023-02-11T09:44:40.058Z,96.90
2023-02-11T09:47:26.636Z,97.00
2023-02-11T09:49:59.980Z,96.70
2023-02-11T09:52:38.445Z,96.90
2023-02-11T09:55:15.952Z,97.00
2023-02-11T09:57:44.125Z,97.00
2023-02-11T10:00:20.483Z,96.80
2023-02-11T10:03:22.456Z,97.00
2023-02-11T10:06:06.778Z,97.00
2023-02-11T10:08:43.756Z,97.10
2023-02-11T10:11:31.184Z,96.50
2023-02-11T10:14:09.834Z,96.60
2023-02-11T10:16:53.580Z,96.80
2023-02-11T10:19:39.142Z,96.80
2023-02-11T10:22:13.263Z,97.00
2023-02-11T10:24:50.021Z,96.80
2023-02-11T10:27:21.430Z,96.80
2023-02-11T10:29:53.561Z,96.60
2023-02-11T10:32:34.433Z,96.50
2023-02-11T10:35:15.205Z,96.70
2023-02-11T10:37:44.604Z,96.80
2023-02-11T10:40:15.904Z,96.90
2023-02-11T10:42:47.061Z,97.10
2023-02-11T10:45:22.529Z,97.30
2023-02-11T10:47:50.677Z,97.30
2023-02-11T10:50:24.402Z,97.40
2023-02-11T10:52:52.575Z,97.20
2023-02-11T10:55:24.128Z,96.70
2023-02-11T10:57:57.479Z,96.80
2023-02-11T11:00:34.155Z,97.00
2023-02-11T11:03:03.380Z,96.50
2023-02-11T11:05:36.298Z,96.70
2023-02-11T11:08:07.773Z,96.90
2023-02-11T11:10:43.335Z,96.90
2023-02-11T11:13:27.976Z,96.80
2023-02-11T11:16:21.912Z,96.30
2023-02-11T11:18:51.986Z,96.60
2023-02-11T11:21:24.413Z,96.80
2023-02-11T11:23:56.558Z,96.90
2023-02-11T11:26:26.314Z,97.00
2023-02-11T11:29:03.579Z,96.90
2023-02-11T11:31:35.472Z,97.00
2023-02-11T11:34:16.950Z,97.00
2023-02-11T11:36:46.771Z,96.60
2023-02-11T11:39:22.486Z,96.60
2023-02-11T11:41:52.931Z,96.50
2023-02-11T11:44:30.870Z,96.10
2023-02-11T11:47:25.050Z,96.10
2023-02-11T11:50:06.836Z,96.40
2023-02-11T11:52:42.378Z,96.40
2023-02-11T11:55:14.393Z,96.50
2023-02-11T11:57:42.653Z,96.50
2023-02-11T12:00:20.593Z,96.60
2023-02-11T12:03:23.659Z,97.40
2023-02-11T12:06:05.314Z,97.40
2023-02-11T12:08:43.783Z,97.20
2023-02-11T12:11:21.550Z,96.90
2023-02-11T12:14:01.211Z,97.20
2023-02-11T12:16:37.527Z,97.10
2023-02-11T12:19:38.587Z,97.30
2023-02-11T12:22:12.715Z,97.60
2023-02-11T12:24:57.556Z,97.40
2023-02-11T12:27:45.191Z,97.40
2023-02-11T12:30:49.562Z,97.60
2023-02-11T12:33:44.791Z,97.60
2023-02-11T12:36:19.915Z,97.40
2023-02-11T12:39:02.524Z,97.90
2023-02-11T12:42:06.031Z,98.00
2023-02-11T12:44:41.174Z,98.10
2023-02-11T12:47:19.481Z,97.80
2023-02-11T12:50:00.882Z,98.20
2023-02-11T12:52:43.524Z,98.30
2023-02-11T12:55:20.273Z,98.20
2023-02-11T12:57:52.418Z,97.60
2023-02-11T13:00:24.773Z,97.60
2023-02-11T13:03:00.749Z,97.20
2023-02-11T13:05:33.752Z,97.60
2023-02-11T13:08:07.014Z,97.30
2023-02-11T13:10:37.810Z,97.20
2023-02-11T13:13:19.059Z,97.00
2023-02-11T13:15:51.022Z,96.80
2023-02-11T13:18:28.380Z,97.00
2023-02-11T13:21:09.207Z,96.90
2023-02-11T13:23:45.402Z,96.80
2023-02-11T13:26:20.624Z,96.60
2023-02-11T13:28:55.280Z,97.30
2023-02-11T13:31:27.078Z,97.00
2023-02-11T13:33:55.335Z,96.90
2023-02-11T13:36:25.753Z,97.30
2023-02-11T13:39:05.686Z,96.90
2023-02-11T13:41:40.189Z,96.60
2023-02-11T13:44:25.738Z,96.70
2023-02-11T13:46:58.294Z,96.60
2023-02-11T13:49:31.743Z,96.60
2023-02-11T13:52:01.589Z,96.20
2023-02-11T13:54:36.653Z,96.30
2023-02-11T13:57:37.238Z,96.00
2023-02-11T14:00:49.738Z,96.20
2023-02-11T14:03:51.593Z,96.50
2023-02-11T14:07:00.828Z,96.50
2023-02-11T14:09:38.506Z,96.50
2023-02-11T14:12:34.958Z,96.20
2023-02-11T14:15:17.833Z,95.70
2023-02-11T14:17:47.689Z,95.60
2023-02-11T14:20:35.614Z,96.10
2023-02-11T14:23:04.697Z,96.00
2023-02-11T14:25:33.239Z,96.10
2023-02-11T14:28:11.746Z,95.70
2023-02-11T14:30:52.515Z,95.60
2023-02-11T14:33:52.718Z,95.70
2023-02-11T14:36:43.605Z,95.80
2023-02-11T14:39:22.954Z,96.00
2023-02-11T14:41:51.994Z,95.90
2023-02-11T14:44:23.195Z,95.70
2023-02-11T14:46:53.417Z,95.80
2023-02-11T14:49:28.349Z,95.80
2023-02-11T14:52:00.697Z,95.30
2023-02-11T14:54:29.891Z,95.30
2023-02-11T14:57:12.804Z,95.30
2023-02-11T14:59:41.546Z,95.30
2023-02-11T15:02:26.258Z,94.90
2023-02-11T15:04:56.520Z,94.90
2023-02-11T15:07:24.833Z,94.70
2023-02-11T15:09:54.831Z,94.80
2023-02-11T15:12:25.954Z,94.50
2023-02-11T15:14:56.218Z,94.80
2023-02-11T15:17:27.314Z,94.30
2023-02-11T15:20:00.246Z,95.10
2023-02-11T15:22:32.939Z,95.10
2023-02-11T15:25:03.976Z,95.10
2023-02-11T15:27:40.408Z,94.60
2023-02-11T15:30:30.716Z,94.30
2023-02-11T15:33:00.974Z,94.20
2023-02-11T15:35:32.848Z,94.50
2023-02-11T15:38:01.373Z,94.50
2023-02-11T15:40:33.114Z,94.20
2023-02-11T15:43:03.666Z,94.20
2023-02-11T15:45:34.473Z,94.20
2023-02-11T15:48:10.714Z,94.20
2023-02-11T15:50:42.210Z,94.40
2023-02-11T15:53:24.216Z,93.70
2023-02-11T15:55:55.001Z,93.80
2023-02-11T15:58:24.505Z,93.70
2023-02-11T16:00:59.616Z,94.00
2023-02-11T16:03:32.563Z,94.20
2023-02-11T16:06:21.657Z,93.80
2023-02-11T16:09:05.729Z,94.20
2023-02-11T16:11:35.676Z,94.20
2023-02-11T16:14:21.184Z,94.10
2023-02-11T16:16:52.946Z,93.90
2023-02-11T16:19:25.317Z,94.00
2023-02-11T16:21:57.234Z,93.90
2023-02-11T16:24:28.964Z,93.90
2023-02-11T16:27:00.786Z,94.00
2023-02-11T16:29:30.356Z,94.00
2023-02-11T16:32:09.358Z,94.20
2023-02-11T16:34:37.959Z,94.30
2023-02-11T16:37:07.746Z,94.40
2023-02-11T16:39:35.758Z,93.90
2023-02-11T16:42:07.110Z,94.00
2023-02-11T16:44:36.149Z,94.20
2023-02-11T16:47:05.941Z,94.10
2023-02-11T16:49:37.049Z,94.10
2023-02-11T16:52:10.289Z,93.70
2023-02-11T16:54:38.507Z,93.40
2023-02-11T16:57:14.871Z,93.20
2023-02-11T16:59:43.518Z,93.20
2023-02-11T17:02:17.219Z,93.20
2023-02-11T17:04:45.837Z,93.50
2023-02-11T17:07:15.336Z,93.60
2023-02-11T17:09:43.606Z,93.50
2023-02-11T17:12:11.821Z,93.60
2023-02-11T17:14:39.905Z,93.30
2023-02-11T17:17:08.128Z,93.50
2023-02-11T17:19:36.110Z,93.60
2023-02-11T17:22:04.903Z,93.30
2023-02-11T17:24:34.333Z,93.40
2023-02-11T17:27:02.357Z,93.20
2023-02-11T17:29:30.637Z,93.20
2023-02-11T17:31:58.745Z,92.80
2023-02-11T17:34:29.152Z,92.90
2023-02-11T17:36:57.976Z,93.00
2023-02-11T17:39:26.254Z,93.20
2023-02-11T17:41:55.678Z,93.00
2023-02-11T17:44:23.756Z,93.10
2023-02-11T17:46:51.778Z,92.90
2023-02-11T17:49:20.162Z,92.90
2023-02-11T17:51:48.327Z,92.80
2023-02-11T17:54:18.496Z,92.70
2023-02-11T17:56:48.007Z,92.60
2023-02-11T17:59:18.302Z,92.70
2023-02-11T18:01:46.528Z,92.80
2023-02-11T18:04:16.670Z,92.70
2023-02-11T18:06:45.636Z,92.50
2023-02-11T18:09:13.988Z,92.80
2023-02-11T18:11:43.007Z,93.00
2023-02-11T18:14:11.679Z,92.90
2023-02-11T18:16:43.607Z,93.50
2023-02-11T18:19:12.484Z,93.50
2023-02-11T18:21:40.838Z,93.20
2023-02-11T18:24:08.951Z,93.60
2023-02-11T18:26:37.434Z,93.70
2023-02-11T18:29:06.946Z,93.80
2023-02-11T18:31:36.374Z,93.70
2023-02-11T18:34:07.542Z,93.60
2023-02-11T18:36:35.906Z,93.50
2023-02-11T18:39:04.903Z,93.30
2023-02-11T18:41:33.195Z,92.90
2023-02-11T18:44:03.330Z,93.20
2023-02-11T18:46:31.719Z,93.10
2023-02-11T18:48:59.753Z,93.00
2023-02-11T18:51:31.749Z,93.10
2023-02-11T18:54:01.192Z,93.10
2023-02-11T18:56:29.336Z,93.20
2023-02-11T18:59:01.131Z,93.10
2023-02-11T19:01:31.116Z,92.90
2023-02-11T19:04:02.695Z,92.80
2023-02-11T19:06:34.468Z,93.10
2023-02-11T19:09:05.340Z,92.90
2023-02-11T19:11:50.250Z,92.60
2023-02-11T19:14:23.988Z,92.70
2023-02-11T19:16:54.541Z,92.80
2023-02-11T19:19:23.805Z,93.00
2023-02-11T19:21:53.473Z,92.90
2023-02-11T19:24:23.790Z,92.90
2023-02-11T19:26:53.826Z,92.90
2023-02-11T19:29:22.038Z,92.70
2023-02-11T19:31:50.271Z,92.30
2023-02-11T19:34:22.268Z,92.60
2023-02-11T19:36:51.097Z,92.60
2023-02-11T19:39:20.612Z,92.60
2023-02-11T19:41:48.681Z,92.30
2023-02-11T19:44:16.874Z,92.70
2023-02-11T19:46:45.978Z,92.70
2023-02-11T19:49:16.538Z,93.00
2023-02-11T19:51:44.978Z,93.10
2023-02-11T19:54:13.268Z,93.10
2023-02-11T19:56:42.979Z,93.10
2023-02-11T19:59:11.740Z,93.20
2023-02-11T20:01:39.869Z,92.90
2023-02-11T20:04:08.482Z,92.60
2023-02-11T20:06:36.938Z,93.00
2023-02-11T20:09:07.373Z,92.90
2023-02-11T20:11:37.316Z,93.20
2023-02-11T20:14:08.368Z,93.10
2023-02-11T20:16:48.232Z,93.00
2023-02-11T20:19:18.473Z,93.20
2023-02-11T20:21:48.582Z,92.90
2023-02-11T20:24:17.415Z,93.00
2023-02-11T20:26:48.344Z,92.90
2023-02-11T20:29:19.268Z,92.90
2023-02-11T20:31:47.361Z,92.80
2023-02-11T20:34:17.539Z,92.80
2023-02-11T20:36:51.618Z,92.90
2023-02-11T20:39:21.838Z,93.10
2023-02-11T20:41:50.641Z,93.10
2023-02-11T20:44:21.711Z,93.10
2023-02-11T20:46:50.143Z,92.80
2023-02-11T20:49:20.149Z,92.60
2023-02-11T20:51:48.743Z,92.50
2023-02-11T20:54:18.809Z,92.60
2023-02-11T20:56:48.566Z,92.70
2023-02-11T20:59:17.527Z,92.80
2023-02-11T21:01:49.614Z,92.80
2023-02-11T21:04:19.718Z,92.60
2023-02-11T21:06:49.128Z,92.30
2023-02-11T21:09:19.648Z,92.30
2023-02-11T21:11:48.127Z,92.20
2023-02-11T21:14:17.883Z,92.50
2023-02-11T21:16:48.378Z,92.70
2023-02-11T21:19:16.939Z,92.50
2023-02-11T21:21:45.257Z,92.70
2023-02-11T21:24:14.192Z,92.50
2023-02-11T21:26:42.555Z,92.30
2023-02-11T21:29:11.559Z,92.60
2023-02-11T21:31:40.139Z,92.70
2023-02-11T21:34:10.826Z,92.40
2023-02-11T21:36:38.868Z,92.40
2023-02-11T21:39:06.900Z,92.20
2023-02-11T21:41:35.066Z,92.50
2023-02-11T21:44:03.364Z,92.60
2023-02-11T21:46:32.046Z,92.50
2023-02-11T21:49:00.529Z,92.40
2023-02-11T21:51:30.434Z,92.10
2023-02-11T21:54:01.152Z,92.00
2023-02-11T21:56:30.698Z,92.20
2023-02-11T21:59:00.275Z,92.20
2023-02-11T22:01:30.507Z,92.50
2023-02-11T22:03:58.902Z,92.40
2023-02-11T22:06:30.975Z,92.50
2023-02-11T22:09:00.003Z,92.30
2023-02-11T22:11:28.023Z,92.10
2023-02-11T22:13:57.806Z,92.20
2023-02-11T22:16:27.696Z,92.40
2023-02-11T22:18:58.394Z,92.40
2023-02-11T22:21:27.952Z,92.50
2023-02-11T22:23:57.444Z,92.50
2023-02-11T22:26:28.021Z,92.50
2023-02-11T22:28:57.080Z,92.90
2023-02-11T22:31:27.850Z,92.90
2023-02-11T22:33:56.084Z,92.90
2023-02-11T22:36:26.202Z,92.90
2023-02-11T22:38:54.794Z,92.70
2023-02-11T22:41:24.425Z,92.70
2023-02-11T22:43:52.394Z,92.90
2023-02-11T22:46:20.865Z,93.10
2023-02-11T22:48:49.408Z,93.10
2023-02-11T22:51:20.740Z,92.90
2023-02-11T22:53:53.433Z,92.70
2023-02-11T22:56:21.905Z,92.30
2023-02-11T22:58:52.121Z,92.10
2023-02-11T23:01:20.910Z,92.20
2023-02-11T23:03:49.155Z,92.30
2023-02-11T23:06:17.635Z,92.20
2023-02-11T23:08:45.718Z,92.20
2023-02-11T23:11:16.284Z,91.90
2023-02-11T23:13:45.772Z,92.30
2023-02-11T23:16:17.769Z,92.20
2023-02-11T23:18:47.717Z,92.10
2023-02-11T23:21:18.162Z,92.00
2023-02-11T23:23:46.690Z,92.00
2023-02-11T23:26:17.154Z,92.00
2023-02-11T23:28:46.088Z,91.90
2023-02-11T23:31:18.014Z,91.50
2023-02-11T23:33:46.468Z,91.60
2023-02-11T23:36:15.524Z,91.80
2023-02-11T23:38:44.349Z,91.70
2023-02-11T23:41:13.322Z,91.70
2023-02-11T23:43:42.013Z,91.90
2023-02-11T23:46:10.661Z,91.80
2023-02-11T23:48:40.525Z,91.70
2023-02-11T23:51:09.628Z,91.60
2023-02-11T23:53:38.087Z,91.60
2023-02-11T23:56:09.465Z,91.40
2023-02-11T23:58:38.159Z,91.20
